Time;durP1;ratioP1;P1;durP2;ratioP2;P2;SDS_P1;SDS_P2;PMS_P1;PMS_P2;Temp;Humidity;BMP_temperature;BMP_pressure;BME280_temperature;BME280_humidity;BME280_pressure;Samples;Min_cycle;Max_cycle;Signal;HPM_P1;HPM_P2
2023/01/30 00:01:06;;;;;;;67.40;34.33;;;;;;;;;;5083214;28;20467;-79
2023/01/30 00:03:34;;;;;;;72.63;35.97;;;;;;;;;;5082640;28;20470;-78
2023/01/30 00:06:00;;;;;;;72.23;36.80;;;;;;;;;;5081740;28;20531;-79
2023/01/30 00:08:27;;;;;;;65.57;35.30;;;;;;;;;;5079960;28;20476;-79
2023/01/30 00:10:54;;;;;;;64.73;34.53;;;;;;;;;;5082964;28;20455;-79
2023/01/30 00:13:21;;;;;;;68.77;35.60;;;;;;;;;;5082129;28;20461;-79
2023/01/30 00:15:47;;;;;;;65.83;33.37;;;;;;;;;;5081843;28;20469;-79
2023/01/30 00:18:14;;;;;;;67.07;35.00;;;;;;;;;;5083760;28;20451;-79
2023/01/30 00:20:40;;;;;;;73.97;35.70;;;;;;;;;;5081575;28;20458;-79
2023/01/30 00:23:07;;;;;;;66.97;35.40;;;;;;;;;;5082282;28;20463;-79
2023/01/30 00:25:33;;;;;;;66.90;35.10;;;;;;;;;;5083422;28;20457;-79
2023/01/30 00:28:01;;;;;;;71.90;36.60;;;;;;;;;;5082681;28;20465;-79
2023/01/30 00:30:28;;;;;;;64.60;34.33;;;;;;;;;;5081338;28;20472;-78
2023/01/30 00:32:55;;;;;;;69.80;34.70;;;;;;;;;;5082736;28;20485;-78
2023/01/30 00:35:27;;;;;;;69.33;35.40;;;;;;;;;;5082391;28;20470;-79
2023/01/30 00:37:53;;;;;;;69.93;36.80;;;;;;;;;;5084319;28;20489;-79
2023/01/30 00:40:20;;;;;;;66.50;35.70;;;;;;;;;;5082290;28;20478;-79
2023/01/30 00:48:15;;;;;;;60.30;33.90;;;;;;;;;;5083062;28;20484;-79
2023/01/30 00:50:44;;;;;;;65.93;35.47;;;;;;;;;;5082490;28;21787;-78
2023/01/30 00:53:11;;;;;;;67.90;36.13;;;;;;;;;;5080582;28;20486;-79
2023/01/30 00:55:37;;;;;;;66.10;35.47;;;;;;;;;;5084403;28;20508;-79
2023/01/30 00:58:05;;;;;;;67.83;35.60;;;;;;;;;;5082441;28;21152;-80
2023/01/30 01:00:33;;;;;;;76.47;38.87;;;;;;;;;;5080422;28;20459;-79
2023/01/30 01:02:59;;;;;;;61.90;35.93;;;;;;;;;;5081130;28;20479;-79
2023/01/30 01:05:26;;;;;;;63.17;33.97;;;;;;;;;;5082837;28;20463;-79
2023/01/30 01:07:52;;;;;;;71.60;35.27;;;;;;;;;;5081722;28;20470;-79
2023/01/30 01:10:19;;;;;;;63.27;34.20;;;;;;;;;;5082160;28;20467;-79
2023/01/30 01:12:46;;;;;;;71.40;36.07;;;;;;;;;;5080251;28;20497;-79
2023/01/30 01:15:13;;;;;;;70.57;33.70;;;;;;;;;;5081033;28;20473;-78
2023/01/30 01:17:42;;;;;;;78.80;36.73;;;;;;;;;;5078715;28;20460;-79
2023/01/30 01:20:10;;;;;;;61.63;33.20;;;;;;;;;;5082153;28;21227;-79
2023/01/30 01:22:37;;;;;;;76.10;35.77;;;;;;;;;;5080702;28;20500;-79
2023/01/30 01:25:03;;;;;;;71.23;35.57;;;;;;;;;;5081488;28;20467;-78
2023/01/30 01:27:30;;;;;;;64.03;34.40;;;;;;;;;;5081821;28;20449;-78
2023/01/30 01:29:56;;;;;;;60.67;34.10;;;;;;;;;;5080500;28;20867;-79
2023/01/30 01:32:23;;;;;;;68.60;35.77;;;;;;;;;;5078996;28;20478;-79
2023/01/30 01:34:50;;;;;;;59.90;32.93;;;;;;;;;;5079688;28;20466;-79
2023/01/30 01:37:17;;;;;;;67.23;33.37;;;;;;;;;;5079879;28;20451;-79
2023/01/30 01:42:30;;;;;;;63.20;33.70;;;;;;;;;;5082439;28;20922;-79
2023/01/30 01:45:02;;;;;;;65.67;35.00;;;;;;;;;;5080420;28;20472;-79
2023/01/30 01:47:28;;;;;;;79.33;35.63;;;;;;;;;;5081927;28;20470;-79
2023/01/30 01:49:56;;;;;;;71.43;35.50;;;;;;;;;;5081630;28;21246;-79
2023/01/30 01:52:23;;;;;;;69.10;33.73;;;;;;;;;;5081864;28;20520;-79
2023/01/30 01:54:52;;;;;;;66.27;35.67;;;;;;;;;;5081954;28;21005;-79
2023/01/30 01:57:20;;;;;;;60.30;32.10;;;;;;;;;;5079873;28;20446;-79
2023/01/30 01:59:50;;;;;;;63.83;35.23;;;;;;;;;;5079466;28;20474;-79
2023/01/30 02:02:17;;;;;;;69.40;34.30;;;;;;;;;;5080019;28;20450;-79
2023/01/30 02:05:05;;;;;;;77.80;35.90;;;;;;;;;;5078413;28;20485;-79
2023/01/30 02:07:35;;;;;;;68.97;33.50;;;;;;;;;;5080259;28;20819;-79
2023/01/30 02:10:01;;;;;;;63.90;34.13;;;;;;;;;;5079531;28;20478;-79
2023/01/30 02:12:28;;;;;;;54.53;30.37;;;;;;;;;;5080322;28;20489;-79
2023/01/30 02:14:56;;;;;;;56.40;31.67;;;;;;;;;;5079724;28;20498;-79
2023/01/30 02:17:23;;;;;;;54.77;29.30;;;;;;;;;;5083151;28;20466;-79
2023/01/30 02:19:55;;;;;;;54.80;29.80;;;;;;;;;;5079436;28;20478;-79
2023/01/30 02:22:43;;;;;;;58.53;32.00;;;;;;;;;;5080451;28;20450;-79
2023/01/30 02:25:24;;;;;;;62.90;32.63;;;;;;;;;;5080284;28;20471;-79
2023/01/30 02:28:02;;;;;;;61.10;31.87;;;;;;;;;;5079242;28;20469;-79
2023/01/30 02:30:54;;;;;;;47.27;29.40;;;;;;;;;;5080712;28;20569;-79
2023/01/30 02:33:26;;;;;;;79.27;33.53;;;;;;;;;;5081446;28;20458;-79
2023/01/30 02:35:57;;;;;;;64.50;28.40;;;;;;;;;;5077479;28;20457;-79
2023/01/30 02:38:29;;;;;;;63.00;32.27;;;;;;;;;;5079318;28;21006;-79
2023/01/30 02:41:00;;;;;;;60.80;33.47;;;;;;;;;;5080182;28;20473;-79
2023/01/30 02:43:31;;;;;;;51.27;29.10;;;;;;;;;;5078705;28;20470;-79
2023/01/30 02:46:00;;;;;;;53.90;27.87;;;;;;;;;;5078500;28;20451;-79
2023/01/30 02:48:28;;;;;;;46.93;26.30;;;;;;;;;;5080678;28;20470;-79
2023/01/30 02:50:57;;;;;;;53.90;28.33;;;;;;;;;;5079152;28;20470;-78
2023/01/30 02:53:24;;;;;;;48.30;28.37;;;;;;;;;;5077904;28;21379;-78
2023/01/30 02:55:50;;;;;;;50.87;28.67;;;;;;;;;;5079576;28;20458;-78
2023/01/30 02:58:19;;;;;;;52.77;29.87;;;;;;;;;;5079268;28;20473;-79
2023/01/30 03:01:15;;;;;;;48.70;29.07;;;;;;;;;;5081030;28;20822;-79
2023/01/30 03:03:50;;;;;;;51.27;27.77;;;;;;;;;;5077977;28;20478;-79
2023/01/30 03:06:30;;;;;;;52.10;25.97;;;;;;;;;;5080145;28;20441;-78
2023/01/30 03:09:02;;;;;;;44.53;25.37;;;;;;;;;;5077837;28;20474;-78
2023/01/30 03:11:30;;;;;;;42.83;24.50;;;;;;;;;;5079108;28;20454;-78
2023/01/30 03:14:01;;;;;;;44.20;24.77;;;;;;;;;;5079628;28;20474;-79
2023/01/30 03:16:31;;;;;;;43.63;23.40;;;;;;;;;;5080529;28;20485;-79
2023/01/30 03:18:59;;;;;;;42.43;25.00;;;;;;;;;;5079539;28;21033;-78
2023/01/30 03:21:25;;;;;;;36.60;22.20;;;;;;;;;;5080347;28;20445;-79
2023/01/30 03:23:52;;;;;;;34.87;21.10;;;;;;;;;;5077237;28;20485;-78
2023/01/30 03:26:20;;;;;;;35.73;21.50;;;;;;;;;;5079147;28;20447;-78
2023/01/30 03:28:48;;;;;;;37.70;20.87;;;;;;;;;;5080868;28;20482;-78
2023/01/30 03:31:15;;;;;;;38.77;20.23;;;;;;;;;;5080959;28;20465;-78
2023/01/30 03:33:46;;;;;;;35.33;19.33;;;;;;;;;;5081674;28;20470;-78
2023/01/30 03:36:13;;;;;;;32.13;18.10;;;;;;;;;;5080411;28;20449;-78
2023/01/30 03:38:40;;;;;;;29.83;17.63;;;;;;;;;;5080266;28;20481;-78
2023/01/30 03:41:06;;;;;;;27.50;18.17;;;;;;;;;;5078930;28;20552;-78
2023/01/30 03:43:32;;;;;;;24.43;15.40;;;;;;;;;;5079699;28;20474;-78
2023/01/30 03:45:59;;;;;;;31.80;18.03;;;;;;;;;;5081011;28;20459;-78
2023/01/30 03:48:25;;;;;;;22.27;14.23;;;;;;;;;;5078509;28;20895;-78
2023/01/30 03:50:53;;;;;;;27.17;16.03;;;;;;;;;;5079533;28;20446;-78
2023/01/30 03:53:19;;;;;;;24.47;13.70;;;;;;;;;;5077687;28;20462;-78
2023/01/30 03:55:46;;;;;;;27.03;13.90;;;;;;;;;;5079818;28;20451;-78
2023/01/30 03:58:12;;;;;;;20.17;14.27;;;;;;;;;;5081142;28;20449;-78
2023/01/30 04:00:39;;;;;;;20.30;11.90;;;;;;;;;;5082690;28;20462;-78
2023/01/30 04:03:06;;;;;;;11.83;7.60;;;;;;;;;;5081297;28;21046;-77
2023/01/30 04:05:32;;;;;;;13.47;9.30;;;;;;;;;;5083539;28;20537;-78
2023/01/30 04:08:00;;;;;;;9.80;6.67;;;;;;;;;;5080966;28;20470;-78
2023/01/30 04:10:28;;;;;;;9.10;5.03;;;;;;;;;;5081938;28;20924;-78
2023/01/30 04:12:54;;;;;;;7.00;4.73;;;;;;;;;;5083344;28;20481;-78
2023/01/30 04:15:21;;;;;;;7.83;4.23;;;;;;;;;;5083230;28;20466;-78
2023/01/30 04:17:47;;;;;;;7.43;3.27;;;;;;;;;;5081017;28;20469;-78
2023/01/30 04:20:15;;;;;;;10.40;3.37;;;;;;;;;;5081993;28;20471;-78
2023/01/30 04:22:42;;;;;;;9.00;3.57;;;;;;;;;;5082570;28;20443;-78
2023/01/30 04:25:10;;;;;;;11.33;3.30;;;;;;;;;;5082970;28;20470;-78
2023/01/30 04:27:36;;;;;;;5.53;2.73;;;;;;;;;;5081639;28;20886;-78
2023/01/30 04:30:03;;;;;;;5.70;2.40;;;;;;;;;;5082300;28;20462;-78
2023/01/30 04:32:29;;;;;;;8.60;2.23;;;;;;;;;;5080614;28;20481;-78
2023/01/30 04:34:56;;;;;;;11.20;2.27;;;;;;;;;;5079974;28;20474;-78
2023/01/30 04:37:22;;;;;;;2.87;2.07;;;;;;;;;;5081735;28;20454;-78
2023/01/30 04:39:49;;;;;;;3.40;1.40;;;;;;;;;;5082204;28;20485;-78
2023/01/30 04:42:16;;;;;;;9.80;1.67;;;;;;;;;;5083738;28;20450;-78
2023/01/30 04:44:43;;;;;;;14.70;2.50;;;;;;;;;;5080055;28;20470;-78
2023/01/30 04:47:09;;;;;;;3.57;1.50;;;;;;;;;;5083792;28;20837;-78
2023/01/30 04:49:35;;;;;;;2.67;1.67;;;;;;;;;;5082378;28;20459;-78
2023/01/30 04:52:02;;;;;;;8.43;1.50;;;;;;;;;;5081407;28;20470;-78
2023/01/30 04:54:28;;;;;;;7.03;2.03;;;;;;;;;;5081669;28;20486;-78
2023/01/30 04:56:54;;;;;;;5.63;1.60;;;;;;;;;;5082716;28;20458;-78
2023/01/30 04:59:22;;;;;;;6.30;2.30;;;;;;;;;;5081087;28;20484;-78
2023/01/30 05:01:49;;;;;;;5.47;1.70;;;;;;;;;;5081476;28;20457;-78
2023/01/30 05:04:16;;;;;;;16.37;1.70;;;;;;;;;;5082949;28;20466;-78
2023/01/30 05:06:42;;;;;;;7.10;2.07;;;;;;;;;;5079767;28;20462;-78
2023/01/30 05:09:09;;;;;;;7.37;3.77;;;;;;;;;;5080584;28;20471;-78
2023/01/30 05:11:35;;;;;;;8.20;3.63;;;;;;;;;;5083109;28;20458;-79
2023/01/30 05:14:02;;;;;;;12.73;2.40;;;;;;;;;;5081103;28;20481;-78
2023/01/30 05:16:30;;;;;;;14.40;4.13;;;;;;;;;;5080940;28;20443;-78
2023/01/30 05:18:56;;;;;;;16.37;4.60;;;;;;;;;;5081032;28;20474;-78
2023/01/30 05:21:24;;;;;;;19.70;5.17;;;;;;;;;;5081040;28;20450;-78
2023/01/30 05:23:51;;;;;;;23.27;5.30;;;;;;;;;;5081648;28;20479;-78
2023/01/30 05:26:17;;;;;;;17.10;5.50;;;;;;;;;;5079551;28;20962;-78
2023/01/30 05:28:43;;;;;;;17.90;4.60;;;;;;;;;;5080680;28;20470;-78
2023/01/30 05:31:11;;;;;;;16.67;4.47;;;;;;;;;;5081596;28;20466;-78
2023/01/30 05:33:39;;;;;;;21.73;4.37;;;;;;;;;;5076664;27;20474;-78
2023/01/30 05:36:06;;;;;;;18.47;5.00;;;;;;;;;;5081907;28;20467;-78
2023/01/30 05:38:33;;;;;;;22.63;4.80;;;;;;;;;;5079668;27;20477;-78
2023/01/30 05:41:00;;;;;;;21.37;4.67;;;;;;;;;;5081539;28;20461;-78
2023/01/30 05:43:26;;;;;;;11.40;4.10;;;;;;;;;;5078972;28;20469;-78
2023/01/30 05:45:53;;;;;;;27.73;5.63;;;;;;;;;;5080510;28;20451;-78
2023/01/30 05:48:19;;;;;;;16.77;5.40;;;;;;;;;;5079698;28;20489;-78
2023/01/30 05:50:47;;;;;;;25.90;7.23;;;;;;;;;;5081781;28;20462;-79
2023/01/30 05:53:14;;;;;;;19.13;5.33;;;;;;;;;;5080887;28;20485;-78
2023/01/30 05:55:40;;;;;;;31.23;5.80;;;;;;;;;;5080152;28;20508;-78
2023/01/30 05:58:06;;;;;;;30.20;6.83;;;;;;;;;;5080233;28;20461;-78
2023/01/30 06:00:33;;;;;;;29.30;6.73;;;;;;;;;;5078353;28;20458;-78
2023/01/30 06:02:59;;;;;;;24.67;9.17;;;;;;;;;;5078112;28;20478;-78
2023/01/30 06:05:26;;;;;;;31.53;6.30;;;;;;;;;;5080488;28;20474;-79
2023/01/30 06:07:53;;;;;;;33.10;6.03;;;;;;;;;;5078659;28;20469;-78
2023/01/30 06:10:20;;;;;;;31.57;6.97;;;;;;;;;;5079702;28;20477;-78
2023/01/30 06:12:46;;;;;;;35.43;6.60;;;;;;;;;;5079166;28;20851;-78
2023/01/30 06:15:12;;;;;;;21.83;5.57;;;;;;;;;;5079536;28;20470;-78
2023/01/30 06:17:42;;;;;;;33.17;6.23;;;;;;;;;;5077772;28;21428;-78
2023/01/30 06:20:09;;;;;;;27.33;6.03;;;;;;;;;;5078950;28;20479;-78
2023/01/30 06:22:35;;;;;;;27.50;5.17;;;;;;;;;;5079154;28;20459;-78
2023/01/30 06:25:04;;;;;;;26.47;5.40;;;;;;;;;;5077319;28;20475;-78
2023/01/30 06:27:30;;;;;;;33.30;6.60;;;;;;;;;;5079778;28;20455;-78
2023/01/30 06:29:57;;;;;;;33.37;6.43;;;;;;;;;;5079488;28;20842;-78
2023/01/30 06:32:23;;;;;;;28.73;6.10;;;;;;;;;;5077623;28;20466;-78
2023/01/30 06:34:50;;;;;;;31.73;6.97;;;;;;;;;;5077479;28;20479;-78
2023/01/30 06:37:16;;;;;;;33.03;8.20;;;;;;;;;;5077909;28;20451;-79
2023/01/30 06:39:42;;;;;;;20.20;5.93;;;;;;;;;;5079857;28;20485;-78
2023/01/30 06:42:10;;;;;;;26.53;5.40;;;;;;;;;;5073362;28;20455;-79
2023/01/30 06:44:37;;;;;;;24.70;6.43;;;;;;;;;;5076976;28;20485;-78
2023/01/30 06:47:03;;;;;;;26.80;6.10;;;;;;;;;;5079459;28;20480;-78
2023/01/30 06:49:30;;;;;;;27.87;6.77;;;;;;;;;;5080252;28;20492;-78
2023/01/30 06:51:56;;;;;;;30.47;6.53;;;;;;;;;;5079714;28;20971;-79
2023/01/30 06:54:23;;;;;;;32.13;7.80;;;;;;;;;;5079063;27;20557;-78
2023/01/30 06:56:49;;;;;;;33.40;7.40;;;;;;;;;;5077872;28;20829;-79
2023/01/30 06:59:17;;;;;;;24.10;6.70;;;;;;;;;;5079021;28;20482;-78
2023/01/30 07:01:44;;;;;;;23.07;6.50;;;;;;;;;;5079177;28;20465;-78
2023/01/30 07:04:10;;;;;;;29.33;5.53;;;;;;;;;;5078862;28;20466;-78
2023/01/30 07:06:36;;;;;;;29.07;6.50;;;;;;;;;;5081289;28;20451;-78
2023/01/30 07:09:03;;;;;;;22.47;6.90;;;;;;;;;;5079744;28;20492;-79
2023/01/30 07:11:30;;;;;;;20.00;4.93;;;;;;;;;;5081003;28;20458;-78
2023/01/30 07:13:56;;;;;;;35.03;6.13;;;;;;;;;;5079833;28;20488;-79
2023/01/30 07:16:28;;;;;;;18.70;4.60;;;;;;;;;;5075203;28;20451;-79
2023/01/30 07:18:56;;;;;;;36.97;8.33;;;;;;;;;;5079050;28;20488;-79
2023/01/30 07:21:22;;;;;;;28.60;6.20;;;;;;;;;;5076501;28;20462;-78
2023/01/30 07:23:49;;;;;;;18.73;4.50;;;;;;;;;;5079035;28;20471;-79
2023/01/30 07:26:15;;;;;;;22.03;5.13;;;;;;;;;;5076947;28;20462;-79
2023/01/30 07:28:42;;;;;;;20.03;4.50;;;;;;;;;;5077628;28;20473;-79
2023/01/30 07:31:08;;;;;;;22.03;5.60;;;;;;;;;;5078351;28;20463;-79
2023/01/30 07:33:36;;;;;;;23.53;4.43;;;;;;;;;;5081061;28;20475;-79
2023/01/30 07:36:02;;;;;;;24.60;4.83;;;;;;;;;;5084136;28;20469;-78
2023/01/30 07:38:29;;;;;;;22.37;5.40;;;;;;;;;;5082757;27;20476;-79
2023/01/30 07:40:57;;;;;;;31.03;5.30;;;;;;;;;;5081804;28;20462;-78
2023/01/30 07:43:24;;;;;;;27.57;6.33;;;;;;;;;;5082314;28;20843;-79
2023/01/30 07:45:50;;;;;;;27.70;5.73;;;;;;;;;;5082701;28;20459;-79
2023/01/30 07:48:18;;;;;;;23.40;5.87;;;;;;;;;;5083069;28;20468;-79
2023/01/30 07:50:46;;;;;;;33.00;5.23;;;;;;;;;;5082607;28;20465;-79
2023/01/30 07:53:13;;;;;;;27.37;4.90;;;;;;;;;;5081725;28;20497;-79
2023/01/30 07:55:40;;;;;;;41.40;6.20;;;;;;;;;;5083650;28;20860;-78
2023/01/30 07:58:06;;;;;;;22.80;5.57;;;;;;;;;;5083168;28;20453;-79
2023/01/30 08:00:33;;;;;;;26.50;5.67;;;;;;;;;;5082109;28;20485;-78
2023/01/30 08:02:59;;;;;;;16.13;4.50;;;;;;;;;;5082845;28;20474;-79
2023/01/30 08:05:26;;;;;;;28.90;5.70;;;;;;;;;;5083284;28;20450;-78
2023/01/30 08:07:55;;;;;;;26.97;5.40;;;;;;;;;;5082856;28;20484;-79
2023/01/30 08:10:21;;;;;;;24.47;5.20;;;;;;;;;;5081407;28;20555;-78
2023/01/30 08:12:49;;;;;;;24.50;8.63;;;;;;;;;;5081487;28;20458;-79
2023/01/30 08:15:16;;;;;;;17.37;5.30;;;;;;;;;;5082339;28;20474;-79
2023/01/30 08:17:42;;;;;;;18.90;5.73;;;;;;;;;;5084359;28;20490;-78
2023/01/30 08:20:09;;;;;;;24.37;5.83;;;;;;;;;;5083371;28;20474;-78
2023/01/30 08:22:36;;;;;;;36.80;5.10;;;;;;;;;;5082190;28;20466;-79
2023/01/30 08:25:05;;;;;;;19.90;4.83;;;;;;;;;;5080804;28;20478;-79
2023/01/30 08:27:31;;;;;;;23.53;5.97;;;;;;;;;;5081638;28;20453;-78
2023/01/30 08:29:58;;;;;;;20.60;7.93;;;;;;;;;;5082599;28;20478;-78
2023/01/30 08:32:24;;;;;;;26.07;5.40;;;;;;;;;;5080166;28;20457;-78
2023/01/30 08:34:50;;;;;;;23.73;4.33;;;;;;;;;;5079702;28;20482;-78
2023/01/30 08:37:17;;;;;;;22.27;5.47;;;;;;;;;;5081946;28;20454;-78
2023/01/30 08:39:43;;;;;;;20.23;5.30;;;;;;;;;;5081593;28;20474;-78
2023/01/30 08:42:11;;;;;;;28.43;5.57;;;;;;;;;;5073318;28;20455;-78
2023/01/30 08:44:38;;;;;;;23.47;5.40;;;;;;;;;;5078548;28;20485;-78
2023/01/30 08:47:04;;;;;;;36.73;5.70;;;;;;;;;;5082968;28;20462;-78
2023/01/30 08:49:32;;;;;;;25.23;6.87;;;;;;;;;;5080495;27;20466;-78
2023/01/30 08:51:58;;;;;;;27.70;5.43;;;;;;;;;;5080657;28;20456;-78
2023/01/30 08:54:24;;;;;;;29.30;6.30;;;;;;;;;;5078714;27;20478;-78
2023/01/30 08:56:57;;;;;;;28.07;5.17;;;;;;;;;;5079994;28;20455;-78
2023/01/30 08:59:25;;;;;;;26.70;5.70;;;;;;;;;;5080028;28;20463;-78
2023/01/30 09:01:51;;;;;;;27.17;5.70;;;;;;;;;;5079782;28;20459;-78
2023/01/30 09:04:17;;;;;;;17.10;6.63;;;;;;;;;;5080002;28;20490;-78
2023/01/30 09:06:44;;;;;;;35.77;5.37;;;;;;;;;;5081190;28;20466;-78
2023/01/30 09:09:10;;;;;;;30.33;6.27;;;;;;;;;;5081092;28;20478;-78
2023/01/30 09:11:37;;;;;;;24.43;6.93;;;;;;;;;;5082738;28;20461;-78
2023/01/30 09:14:03;;;;;;;20.57;5.07;;;;;;;;;;5079409;28;20479;-78
2023/01/30 09:16:31;;;;;;;35.00;5.80;;;;;;;;;;5079629;28;20450;-78
2023/01/30 09:18:57;;;;;;;22.07;4.63;;;;;;;;;;5077518;28;20475;-78
2023/01/30 09:21:24;;;;;;;37.90;8.37;;;;;;;;;;5080619;28;20863;-78
2023/01/30 09:23:50;;;;;;;25.43;6.00;;;;;;;;;;5080631;28;20569;-78
2023/01/30 09:26:17;;;;;;;17.67;5.20;;;;;;;;;;5082683;28;20461;-78
2023/01/30 09:28:43;;;;;;;20.50;5.27;;;;;;;;;;5080929;28;20475;-78
2023/01/30 09:31:09;;;;;;;31.80;6.10;;;;;;;;;;5077888;28;20459;-78
2023/01/30 09:33:37;;;;;;;22.00;5.63;;;;;;;;;;5080520;28;20489;-78
2023/01/30 09:36:05;;;;;;;30.17;6.47;;;;;;;;;;5080220;28;21212;-79
2023/01/30 09:38:31;;;;;;;22.27;5.10;;;;;;;;;;5081743;28;20485;-79
2023/01/30 09:41:05;;;;;;;27.13;5.80;;;;;;;;;;5080952;28;20462;-78
2023/01/30 09:43:40;;;;;;;26.07;5.63;;;;;;;;;;5081549;28;20478;-79
2023/01/30 09:46:11;;;;;;;21.67;6.27;;;;;;;;;;5080918;28;20459;-78
2023/01/30 09:48:45;;;;;;;19.80;5.60;;;;;;;;;;5076681;28;20481;-78
2023/01/30 09:51:15;;;;;;;20.17;5.40;;;;;;;;;;5080207;28;20462;-77
2023/01/30 09:53:50;;;;;;;14.67;4.30;;;;;;;;;;5075928;28;20952;-78
2023/01/30 09:56:17;;;;;;;18.97;4.37;;;;;;;;;;5077587;28;20482;-78
2023/01/30 09:58:46;;;;;;;20.40;5.97;;;;;;;;;;5079737;28;21392;-77
2023/01/30 10:01:17;;;;;;;22.83;5.70;;;;;;;;;;5079866;28;20461;-78
2023/01/30 10:03:49;;;;;;;45.60;6.27;;;;;;;;;;5074409;28;20490;-78
2023/01/30 10:06:16;;;;;;;21.60;5.60;;;;;;;;;;5081067;28;20462;-78
2023/01/30 10:08:49;;;;;;;33.60;7.43;;;;;;;;;;5079799;28;20486;-78
2023/01/30 10:11:22;;;;;;;22.10;4.47;;;;;;;;;;5079932;28;20469;-78
2023/01/30 10:13:53;;;;;;;23.63;4.90;;;;;;;;;;5078696;28;20474;-78
2023/01/30 10:16:22;;;;;;;22.93;4.90;;;;;;;;;;5079776;28;20485;-78
2023/01/30 10:18:54;;;;;;;24.80;6.10;;;;;;;;;;5075751;28;20478;-78
2023/01/30 10:21:26;;;;;;;22.97;7.47;;;;;;;;;;5078495;28;20459;-78
2023/01/30 10:24:10;;;;;;;29.40;6.50;;;;;;;;;;5080596;28;20474;-78
2023/01/30 10:26:37;;;;;;;26.90;6.10;;;;;;;;;;5079409;28;20455;-78
2023/01/30 10:29:06;;;;;;;23.40;5.77;;;;;;;;;;5078658;28;20475;-78
2023/01/30 10:31:36;;;;;;;31.47;5.93;;;;;;;;;;5079862;28;20964;-78
2023/01/30 10:34:06;;;;;;;20.97;5.67;;;;;;;;;;5078743;28;20967;-78
2023/01/30 10:36:35;;;;;;;15.67;5.00;;;;;;;;;;5075245;28;20486;-78
2023/01/30 10:39:06;;;;;;;24.53;6.33;;;;;;;;;;5078840;28;20966;-78
2023/01/30 10:41:34;;;;;;;22.63;5.20;;;;;;;;;;5079509;28;20542;-78
2023/01/30 10:44:03;;;;;;;24.77;7.43;;;;;;;;;;5080702;28;20478;-78
2023/01/30 10:46:54;;;;;;;23.37;4.90;;;;;;;;;;5079866;28;20455;-78
2023/01/30 10:49:24;;;;;;;19.07;3.87;;;;;;;;;;5060505;28;20467;-78
2023/01/30 10:51:55;;;;;;;15.77;3.90;;;;;;;;;;5081793;28;20445;-78
2023/01/30 10:54:24;;;;;;;24.30;3.73;;;;;;;;;;5080140;28;20493;-78
2023/01/30 10:56:54;;;;;;;18.20;4.17;;;;;;;;;;5079985;28;20486;-78
2023/01/30 10:59:22;;;;;;;17.47;4.80;;;;;;;;;;5079564;28;20489;-78
2023/01/30 11:01:53;;;;;;;18.67;5.27;;;;;;;;;;5078851;28;20454;-78
2023/01/30 11:04:23;;;;;;;18.53;4.30;;;;;;;;;;5076047;28;20487;-79
2023/01/30 11:06:52;;;;;;;20.77;4.50;;;;;;;;;;5078866;28;20458;-78
2023/01/30 11:09:19;;;;;;;23.00;4.83;;;;;;;;;;5082480;28;20458;-78
2023/01/30 11:11:48;;;;;;;16.07;5.27;;;;;;;;;;5080143;28;20986;-78
2023/01/30 11:14:14;;;;;;;20.97;6.40;;;;;;;;;;5083176;28;20470;-78
2023/01/30 11:16:44;;;;;;;10.80;4.23;;;;;;;;;;5084052;28;20486;-78
2023/01/30 11:19:11;;;;;;;14.33;4.97;;;;;;;;;;5084409;28;20850;-78
2023/01/30 11:21:41;;;;;;;19.00;5.60;;;;;;;;;;5083054;28;20461;-78
2023/01/30 11:24:15;;;;;;;19.90;5.83;;;;;;;;;;5084118;28;20502;-78
2023/01/30 11:26:42;;;;;;;28.27;6.90;;;;;;;;;;5082351;28;20814;-78
2023/01/30 11:29:15;;;;;;;22.67;4.97;;;;;;;;;;5080010;28;20473;-78
2023/01/30 11:31:42;;;;;;;27.07;5.27;;;;;;;;;;5084778;28;20451;-78
2023/01/30 11:34:13;;;;;;;19.47;5.00;;;;;;;;;;5083376;28;20482;-78
2023/01/30 11:36:39;;;;;;;21.90;5.57;;;;;;;;;;5083994;28;20493;-78
2023/01/30 11:39:19;;;;;;;30.07;5.60;;;;;;;;;;5082585;28;20478;-78
2023/01/30 11:41:57;;;;;;;27.90;4.50;;;;;;;;;;5083770;28;20552;-77
2023/01/30 11:44:25;;;;;;;15.50;4.87;;;;;;;;;;5081498;28;20885;-78
2023/01/30 11:46:52;;;;;;;23.30;5.13;;;;;;;;;;5082842;28;20454;-77
2023/01/30 11:49:23;;;;;;;20.57;6.10;;;;;;;;;;5081227;28;20482;-77
2023/01/30 11:51:53;;;;;;;26.70;7.77;;;;;;;;;;5081076;28;20450;-77
2023/01/30 11:54:22;;;;;;;21.17;5.00;;;;;;;;;;5082548;28;20471;-78
2023/01/30 11:56:52;;;;;;;27.73;5.43;;;;;;;;;;5083812;28;20482;-78
2023/01/30 11:59:23;;;;;;;20.87;4.97;;;;;;;;;;5085175;28;20485;-77
2023/01/30 12:01:50;;;;;;;15.50;5.20;;;;;;;;;;5081463;28;20458;-77
2023/01/30 12:04:18;;;;;;;28.93;5.20;;;;;;;;;;5077967;28;20568;-77
2023/01/30 12:06:45;;;;;;;14.27;4.50;;;;;;;;;;5082774;28;20438;-77
2023/01/30 12:09:30;;;;;;;18.93;5.53;;;;;;;;;;5079920;28;20470;-77
2023/01/30 12:11:58;;;;;;;27.83;5.63;;;;;;;;;;5081755;28;20462;-77
2023/01/30 12:14:32;;;;;;;19.27;5.53;;;;;;;;;;5068928;28;20517;-77
2023/01/30 12:17:05;;;;;;;26.33;6.43;;;;;;;;;;5082983;28;20482;-77
2023/01/30 12:19:35;;;;;;;33.27;5.27;;;;;;;;;;5079556;28;20485;-78
2023/01/30 12:22:05;;;;;;;21.17;4.40;;;;;;;;;;5081243;28;20449;-78
2023/01/30 12:24:37;;;;;;;22.33;5.17;;;;;;;;;;5078605;28;21195;-78
2023/01/30 12:27:10;;;;;;;21.07;4.20;;;;;;;;;;5082195;28;20901;-78
2023/01/30 12:29:38;;;;;;;13.13;3.53;;;;;;;;;;5082259;28;20477;-78
2023/01/30 12:32:07;;;;;;;13.63;3.73;;;;;;;;;;5062125;28;20553;-77
2023/01/30 12:34:33;;;;;;;54.20;4.80;;;;;;;;;;5080669;28;20548;-76
2023/01/30 12:37:05;;;;;;;18.50;5.43;;;;;;;;;;5076285;28;20473;-77
2023/01/30 12:39:37;;;;;;;25.63;4.97;;;;;;;;;;5075686;28;20529;-77
2023/01/30 12:42:12;;;;;;;13.90;3.40;;;;;;;;;;5079583;28;20466;-78
2023/01/30 12:44:49;;;;;;;12.80;3.73;;;;;;;;;;5080452;28;20511;-78
2023/01/30 12:47:24;;;;;;;20.90;4.37;;;;;;;;;;5078028;28;20451;-77
2023/01/30 12:49:57;;;;;;;24.53;4.20;;;;;;;;;;5080285;28;20475;-77
2023/01/30 12:52:32;;;;;;;23.53;3.53;;;;;;;;;;5081542;28;20474;-78
2023/01/30 12:55:02;;;;;;;18.93;3.90;;;;;;;;;;5080610;28;20469;-78
2023/01/30 12:57:36;;;;;;;7.57;3.60;;;;;;;;;;5080509;28;20509;-78
2023/01/30 13:00:15;;;;;;;15.27;3.60;;;;;;;;;;5078942;28;20471;-78
2023/01/30 13:02:50;;;;;;;24.40;4.70;;;;;;;;;;5079034;28;21073;-78
2023/01/30 13:05:27;;;;;;;12.43;4.17;;;;;;;;;;5080647;28;20455;-78
2023/01/30 13:08:00;;;;;;;19.27;4.67;;;;;;;;;;5079704;28;20974;-77
2023/01/30 13:10:29;;;;;;;13.63;4.20;;;;;;;;;;5079280;28;20462;-77
2023/01/30 13:13:03;;;;;;;10.53;3.07;;;;;;;;;;5079963;28;20823;-78
2023/01/30 13:15:32;;;;;;;15.47;4.00;;;;;;;;;;5078235;28;20464;-77
2023/01/30 13:18:04;;;;;;;17.60;3.67;;;;;;;;;;5079429;27;20473;-78
2023/01/30 13:20:39;;;;;;;15.80;4.13;;;;;;;;;;5080619;28;20462;-77
2023/01/30 13:23:11;;;;;;;25.97;3.93;;;;;;;;;;5080714;28;20481;-77
2023/01/30 13:25:43;;;;;;;13.00;2.90;;;;;;;;;;5080602;28;20521;-77
2023/01/30 13:28:12;;;;;;;32.43;4.87;;;;;;;;;;5079630;28;20470;-77
2023/01/30 13:30:39;;;;;;;18.43;4.67;;;;;;;;;;5078290;28;20984;-76
2023/01/30 13:33:10;;;;;;;14.60;4.20;;;;;;;;;;5080102;28;20481;-77
2023/01/30 13:35:41;;;;;;;11.27;3.73;;;;;;;;;;5076261;28;20976;-77
2023/01/30 13:38:09;;;;;;;12.83;4.00;;;;;;;;;;5079827;28;20474;-78
2023/01/30 13:40:38;;;;;;;13.10;3.90;;;;;;;;;;5081000;28;20808;-77
2023/01/30 13:43:08;;;;;;;13.40;3.80;;;;;;;;;;5078197;28;20483;-78
2023/01/30 13:45:37;;;;;;;18.00;5.03;;;;;;;;;;5077635;28;20462;-78
2023/01/30 13:48:10;;;;;;;13.73;3.10;;;;;;;;;;5078822;28;21045;-78
2023/01/30 13:50:42;;;;;;;16.80;4.23;;;;;;;;;;5080803;28;20458;-78
2023/01/30 13:53:11;;;;;;;38.00;5.30;;;;;;;;;;5076528;28;20475;-77
2023/01/30 13:55:41;;;;;;;20.40;4.73;;;;;;;;;;5078895;28;20848;-77
2023/01/30 13:58:13;;;;;;;24.47;5.53;;;;;;;;;;5076044;28;20470;-77
2023/01/30 14:00:51;;;;;;;25.90;3.93;;;;;;;;;;5076251;28;20451;-77
2023/01/30 14:03:30;;;;;;;26.17;5.77;;;;;;;;;;5072439;28;20478;-77
2023/01/30 14:06:01;;;;;;;17.80;4.57;;;;;;;;;;5079152;28;20549;-77
2023/01/30 14:08:28;;;;;;;30.67;5.67;;;;;;;;;;5077658;28;20484;-77
2023/01/30 14:10:55;;;;;;;20.87;4.10;;;;;;;;;;5077560;28;20481;-77
2023/01/30 14:13:22;;;;;;;18.00;5.77;;;;;;;;;;5077661;28;20498;-77
2023/01/30 14:15:53;;;;;;;19.07;4.03;;;;;;;;;;5079488;28;20446;-77
2023/01/30 14:18:22;;;;;;;23.60;6.27;;;;;;;;;;5079554;28;20462;-77
2023/01/30 14:20:49;;;;;;;16.00;4.43;;;;;;;;;;5078800;28;20458;-77
2023/01/30 14:23:21;;;;;;;23.77;6.50;;;;;;;;;;5077651;28;20469;-77
2023/01/30 14:25:48;;;;;;;22.60;5.83;;;;;;;;;;5079253;28;20458;-77
2023/01/30 14:28:51;;;;;;;21.00;4.70;;;;;;;;;;5077416;28;20849;-79
2023/01/30 14:31:51;;;;;;;24.87;5.20;;;;;;;;;;5076692;28;21218;-79
2023/01/30 14:34:48;;;;;;;36.60;6.60;;;;;;;;;;5078588;28;20482;-79
2023/01/30 14:40:31;;;;;;;29.63;5.63;;;;;;;;;;5077223;27;20565;-81
2023/01/30 14:43:18;;;;;;;18.10;5.23;;;;;;;;;;5068983;28;20472;-82
2023/01/30 14:45:46;;;;;;;32.27;5.37;;;;;;;;;;5035491;28;20448;-80
2023/01/30 14:48:26;;;;;;;26.90;5.47;;;;;;;;;;5033227;28;20473;-81
2023/01/30 14:51:07;;;;;;;20.63;5.07;;;;;;;;;;5034573;28;20512;-81